Time;durP1;ratioP1;P1;durP2;ratioP2;P2;SDS_P1;SDS_P2;PMS_P1;PMS_P2;Temp;Humidity;BMP_temperature;BMP_pressure;BME280_temperature;BME280_humidity;BME280_pressure;Samples;Min_cycle;Max_cycle;Signal;HPM_P1;HPM_P2
2023/04/12 02:29:00;;;;;;;5.70;3.07;;;7.50;1.00;;;;;;4442928;28;20559;-55
2023/04/12 02:31:27;;;;;;;6.80;2.93;;;7.50;1.00;;;;;;5019126;28;20757;-53
2023/04/12 02:33:54;;;;;;;8.93;2.97;;;7.50;1.00;;;;;;5018401;28;20523;-56
2023/04/12 02:36:23;;;;;;;6.70;3.13;;;7.50;1.00;;;;;;5018402;28;20468;-56
2023/04/12 02:38:51;;;;;;;7.60;3.57;;;7.40;1.00;;;;;;5018025;28;20597;-56
2023/04/12 02:41:18;;;;;;;6.80;2.80;;;7.40;1.00;;;;;;5018502;28;20468;-53
2023/04/12 02:43:48;;;;;;;11.20;3.33;;;7.50;1.00;;;;;;5018616;28;20469;-56
2023/04/12 02:46:20;;;;;;;5.50;3.30;;;7.40;1.00;;;;;;5018431;28;20464;-57
2023/04/12 02:48:47;;;;;;;8.27;2.80;;;7.40;1.00;;;;;;5018464;28;20564;-54
2023/04/12 02:51:14;;;;;;;9.03;3.30;;;7.40;1.00;;;;;;5018475;28;20463;-55
2023/04/12 02:53:42;;;;;;;8.07;3.00;;;7.40;1.00;;;;;;5018348;28;20467;-55
2023/04/12 02:56:09;;;;;;;5.00;2.40;;;7.40;1.00;;;;;;5018056;28;20471;-57
2023/04/12 02:58:37;;;;;;;6.20;3.10;;;7.40;1.00;;;;;;5018145;28;20533;-59
2023/04/12 03:01:06;;;;;;;9.40;3.57;;;7.40;1.00;;;;;;5018495;28;20935;-51
2023/04/12 03:03:35;;;;;;;4.57;2.83;;;7.40;1.00;;;;;;5018430;28;20867;-53
2023/04/12 03:06:02;;;;;;;8.00;3.27;;;7.40;1.00;;;;;;5017961;28;20562;-51
2023/04/12 03:08:29;;;;;;;6.53;3.60;;;7.30;1.00;;;;;;5018213;28;20446;-57
2023/04/12 03:10:57;;;;;;;9.40;2.70;;;7.30;1.00;;;;;;5017518;28;20468;-59
2023/04/12 03:13:24;;;;;;;11.57;3.20;;;7.30;1.00;;;;;;5016977;28;20782;-54
2023/04/12 03:15:55;;;;;;;5.20;2.80;;;7.30;1.00;;;;;;5017756;28;20496;-59
2023/04/12 03:18:22;;;;;;;6.33;2.93;;;7.30;1.00;;;;;;5017722;28;20475;-58
2023/04/12 03:20:52;;;;;;;8.00;3.03;;;7.30;1.00;;;;;;5017772;28;20491;-55
2023/04/12 03:23:20;;;;;;;5.20;3.17;;;7.30;1.00;;;;;;5018119;28;20541;-58
2023/04/12 03:25:47;;;;;;;5.03;3.40;;;7.20;1.00;;;;;;5017944;28;20566;-57
2023/04/12 03:28:14;;;;;;;4.27;2.50;;;7.20;1.00;;;;;;5018269;28;20430;-58
2023/04/12 03:30:41;;;;;;;6.40;2.90;;;7.30;1.00;;;;;;5045874;28;20954;-52
2023/04/12 03:33:08;;;;;;;6.07;3.60;;;7.30;1.00;;;;;;5057672;28;20757;-57
2023/04/12 03:35:35;;;;;;;4.43;2.60;;;7.20;1.00;;;;;;5057338;28;20477;-60
2023/04/12 03:38:04;;;;;;;4.60;2.70;;;7.20;1.00;;;;;;5057111;28;20444;-56
2023/04/12 03:40:31;;;;;;;5.23;2.70;;;7.30;1.00;;;;;;5057176;28;20529;-58
2023/04/12 03:43:01;;;;;;;9.67;2.80;;;7.30;1.00;;;;;;5056940;28;20885;-60
2023/04/12 03:45:28;;;;;;;4.53;2.70;;;7.20;1.00;;;;;;5057242;28;20462;-61
2023/04/12 03:47:55;;;;;;;5.10;3.30;;;7.20;1.00;;;;;;5057216;28;20466;-62
2023/04/12 03:50:22;;;;;;;3.80;2.30;;;7.20;1.00;;;;;;5057293;28;20465;-59
2023/04/12 03:52:49;;;;;;;6.90;2.50;;;7.20;1.00;;;;;;5057279;28;20462;-57
2023/04/12 03:55:18;;;;;;;4.00;2.93;;;7.20;1.00;;;;;;5056833;28;20465;-59
2023/04/12 03:57:45;;;;;;;4.53;2.93;;;7.20;1.00;;;;;;5057103;28;20466;-60
2023/04/12 04:00:13;;;;;;;3.87;2.43;;;7.20;1.00;;;;;;5057405;28;20493;-61
2023/04/12 04:02:40;;;;;;;4.90;2.40;;;7.20;1.00;;;;;;5057145;28;20458;-58
2023/04/12 04:05:08;;;;;;;3.97;2.80;;;7.20;1.00;;;;;;5057591;28;20465;-61
2023/04/12 04:07:35;;;;;;;5.93;3.73;;;7.20;1.00;;;;;;5056624;28;20462;-60
2023/04/12 04:10:04;;;;;;;7.23;3.27;;;7.20;1.00;;;;;;5057239;28;20454;-61
2023/04/12 04:12:32;;;;;;;5.60;2.83;;;7.20;1.00;;;;;;5057530;28;20549;-60
2023/04/12 04:15:00;;;;;;;5.37;3.20;;;7.20;1.00;;;;;;5056327;28;20458;-60
2023/04/12 04:17:27;;;;;;;5.50;3.07;;;7.20;1.00;;;;;;5057008;28;20436;-62
2023/04/12 04:19:54;;;;;;;4.20;3.23;;;7.20;1.00;;;;;;5056762;28;20592;-60
2023/04/12 04:22:21;;;;;;;8.53;3.87;;;7.20;1.00;;;;;;5057267;28;20470;-60
2023/04/12 04:24:49;;;;;;;7.60;3.47;;;7.20;1.00;;;;;;5058900;28;20465;-61
2023/04/12 04:27:16;;;;;;;7.23;3.43;;;7.20;1.00;;;;;;5060768;28;20832;-61
2023/04/12 04:29:44;;;;;;;4.93;3.13;;;7.20;1.00;;;;;;5060553;28;20478;-61
2023/04/12 04:32:11;;;;;;;5.03;3.70;;;7.20;1.00;;;;;;5060922;28;20481;-61
2023/04/12 04:34:39;;;;;;;5.03;2.90;;;7.30;1.00;;;;;;5060709;28;20807;-63
2023/04/12 04:37:06;;;;;;;6.70;2.70;;;7.20;1.00;;;;;;5060590;28;20515;-62
2023/04/12 04:39:33;;;;;;;7.87;3.37;;;7.30;1.00;;;;;;5060560;28;20489;-60
2023/04/12 04:42:00;;;;;;;4.90;3.27;;;7.30;1.00;;;;;;5060459;28;20462;-64
2023/04/12 04:44:27;;;;;;;5.07;2.83;;;7.30;1.00;;;;;;5060796;28;20468;-61
2023/04/12 04:46:57;;;;;;;5.03;2.20;;;7.30;1.00;;;;;;5060416;28;20871;-62
2023/04/12 04:49:25;;;;;;;5.03;2.77;;;7.30;1.00;;;;;;5058568;28;20465;-62
2023/04/12 04:51:52;;;;;;;4.60;2.70;;;7.40;1.00;;;;;;5059781;28;20771;-61
2023/04/12 04:54:19;;;;;;;6.20;3.10;;;7.30;1.00;;;;;;5059370;28;20489;-59
2023/04/12 04:56:46;;;;;;;7.60;3.00;;;7.40;1.00;;;;;;5058378;28;20903;-61
2023/04/12 04:59:13;;;;;;;5.87;3.43;;;7.40;1.00;;;;;;5059901;28;20462;-61
2023/04/12 05:01:41;;;;;;;3.40;2.73;;;7.40;1.00;;;;;;5059599;28;20473;-61
2023/04/12 05:04:10;;;;;;;4.10;2.63;;;7.40;1.00;;;;;;5060163;28;20462;-62
2023/04/12 05:06:37;;;;;;;5.30;2.80;;;7.40;1.00;;;;;;5059799;28;20458;-61
2023/04/12 05:09:04;;;;;;;4.53;3.20;;;7.40;1.00;;;;;;5059886;28;20462;-60
2023/04/12 05:11:31;;;;;;;3.57;2.87;;;7.40;1.00;;;;;;5060453;28;20874;-60
2023/04/12 05:14:01;;;;;;;5.40;2.80;;;7.40;1.00;;;;;;5059950;28;20562;-63
2023/04/12 05:16:31;;;;;;;4.17;2.80;;;7.40;1.00;;;;;;5059140;28;20801;-62
2023/04/12 05:18:58;;;;;;;4.73;3.30;;;7.40;1.00;;;;;;5059496;28;20473;-62
2023/04/12 05:21:27;;;;;;;4.50;3.30;;;7.40;3.90;;;;;;5059818;28;20791;-63
2023/04/12 05:23:54;;;;;;;4.00;3.20;;;7.30;30.10;;;;;;5059729;28;20481;-61
2023/04/12 05:26:23;;;;;;;7.30;2.93;;;7.30;99.90;;;;;;5059799;28;20468;-63
2023/04/12 05:28:50;;;;;;;3.63;2.83;;;7.30;99.90;;;;;;5060035;28;20465;-63
2023/04/12 05:31:18;;;;;;;4.53;2.90;;;7.30;1.00;;;;;;5058137;28;20496;-60
2023/04/12 05:33:45;;;;;;;3.40;2.50;;;7.40;1.00;;;;;;5058579;28;20463;-63
2023/04/12 05:36:12;;;;;;;4.70;3.30;;;7.40;1.00;;;;;;5057608;28;20461;-64
2023/04/12 05:38:42;;;;;;;5.00;2.83;;;7.30;1.00;;;;;;5055386;28;20545;-63
2023/04/12 05:41:09;;;;;;;3.77;2.63;;;7.30;1.00;;;;;;5059127;28;20493;-64
2023/04/12 05:43:36;;;;;;;3.30;2.90;;;7.30;1.00;;;;;;5059142;28;20462;-63
2023/04/12 05:46:03;;;;;;;4.73;3.00;;;7.30;51.70;;;;;;5059333;28;20815;-63
2023/04/12 05:48:31;;;;;;;7.20;2.80;;;7.30;99.90;;;;;;5059311;28;20463;-64
2023/04/12 05:51:03;;;;;;;3.30;2.70;;;7.30;1.00;;;;;;5058381;28;20458;-64
2023/04/12 05:53:31;;;;;;;5.83;3.10;;;7.30;1.00;;;;;;5058161;28;20504;-63
2023/04/12 05:56:00;;;;;;;3.43;2.43;;;7.30;99.90;;;;;;5058513;28;20501;-64
2023/04/12 05:58:27;;;;;;;5.70;3.03;;;7.30;1.00;;;;;;5058297;28;20450;-65
2023/04/12 06:00:55;;;;;;;3.50;2.67;;;7.30;58.90;;;;;;5056407;28;20501;-64
2023/04/12 06:03:24;;;;;;;4.10;2.33;;;7.30;1.00;;;;;;5058225;28;20472;-64
2023/04/12 06:05:51;;;;;;;4.50;2.50;;;7.20;1.00;;;;;;5058064;28;20515;-64
2023/04/12 06:08:18;;;;;;;3.07;2.20;;;7.20;99.90;;;;;;5056306;28;20473;-63
2023/04/12 06:10:45;;;;;;;3.90;3.13;;;7.30;1.00;;;;;;5052230;28;20470;-65
2023/04/12 06:13:14;;;;;;;4.43;2.50;;;7.30;99.90;;;;;;5058403;28;20462;-60
2023/04/12 06:15:41;;;;;;;5.53;3.20;;;7.30;99.90;;;;;;5057425;28;20883;-64
2023/04/12 06:18:08;;;;;;;3.80;2.53;;;7.30;99.90;;;;;;5058737;28;20621;-60
2023/04/12 06:20:39;;;;;;;3.40;2.30;;;7.30;1.00;;;;;;5059024;28;20767;-64
2023/04/12 06:23:06;;;;;;;3.60;2.37;;;7.40;99.90;;;;;;5058512;28;20496;-62
2023/04/12 06:25:34;;;;;;;5.60;3.20;;;7.40;99.90;;;;;;5057424;28;20750;-63
2023/04/12 06:28:01;;;;;;;4.93;2.73;;;7.40;99.90;;;;;;5058437;28;20560;-63
2023/04/12 06:30:30;;;;;;;2.97;2.33;;;7.30;99.90;;;;;;5057940;28;20486;-62
2023/04/12 06:32:57;;;;;;;5.07;4.03;;;7.40;99.90;;;;;;5058160;28;20791;-57
2023/04/12 06:35:24;;;;;;;4.20;2.57;;;7.40;99.90;;;;;;5057955;28;20463;-60
2023/04/12 06:37:51;;;;;;;4.50;2.40;;;7.40;99.90;;;;;;5057322;28;20437;-62
2023/04/12 06:40:18;;;;;;;2.97;2.57;;;7.40;99.90;;;;;;5057954;28;20972;-64
2023/04/12 06:42:45;;;;;;;5.33;2.43;;;7.50;99.90;;;;;;5058379;28;20492;-64
2023/04/12 06:45:12;;;;;;;5.07;2.57;;;7.40;99.90;;;;;;5057791;28;20466;-64
2023/04/12 06:47:41;;;;;;;4.43;2.33;;;7.40;99.90;;;;;;5057871;28;20890;-63
2023/04/12 06:50:09;;;;;;;3.43;2.20;;;7.50;99.90;;;;;;5058573;28;20462;-63
2023/04/12 06:52:36;;;;;;;3.63;1.93;;;7.50;99.90;;;;;;5058371;28;20758;-62
2023/04/12 06:55:03;;;;;;;2.70;2.10;;;7.60;99.90;;;;;;5057916;28;20463;-64
2023/04/12 06:57:30;;;;;;;3.33;2.10;;;7.50;99.90;;;;;;5057646;28;20470;-64
2023/04/12 06:59:57;;;;;;;3.13;2.40;;;7.60;99.90;;;;;;5057419;28;20470;-63
2023/04/12 07:02:25;;;;;;;3.23;1.93;;;7.60;99.90;;;;;;5057979;28;20439;-61
2023/04/12 07:04:54;;;;;;;4.93;2.57;;;7.70;99.90;;;;;;5057566;28;20483;-64
2023/04/12 07:07:21;;;;;;;3.80;2.30;;;7.60;99.90;;;;;;5057210;28;20469;-65
2023/04/12 07:09:48;;;;;;;2.80;2.10;;;7.70;99.90;;;;;;5057811;28;20857;-65
2023/04/12 07:12:15;;;;;;;3.03;2.40;;;7.70;99.90;;;;;;5054886;28;20522;-60
2023/04/12 07:14:42;;;;;;;3.77;2.10;;;7.80;99.90;;;;;;5054520;28;20541;-64
2023/04/12 07:17:09;;;;;;;2.67;1.90;;;7.70;1.00;;;;;;5055109;28;20471;-64
2023/04/12 07:19:36;;;;;;;2.40;2.07;;;7.80;14.50;;;;;;5057272;28;20469;-63
2023/04/12 07:22:05;;;;;;;2.80;2.10;;;7.90;87.00;;;;;;5057345;28;20501;-65
2023/04/12 07:24:32;;;;;;;2.40;2.20;;;7.90;99.90;;;;;;5057218;28;20465;-65
2023/04/12 07:26:59;;;;;;;2.60;2.13;;;8.00;59.70;;;;;;5056882;28;20458;-63
2023/04/12 07:29:26;;;;;;;3.37;1.83;;;8.00;1.00;;;;;;5056985;28;20567;-65
2023/04/12 07:31:54;;;;;;;4.80;2.00;;;8.10;2.90;;;;;;5057466;28;20462;-64
2023/04/12 07:34:21;;;;;;;2.67;2.20;;;8.10;1.00;;;;;;5057666;28;20565;-66
2023/04/12 07:36:48;;;;;;;3.10;2.20;;;8.00;1.00;;;;;;5057432;28;20882;-64
2023/04/12 07:39:16;;;;;;;3.03;2.33;;;8.10;90.60;;;;;;5057163;28;20469;-65
2023/04/12 07:41:45;;;;;;;3.00;2.00;;;8.10;1.00;;;;;;5057105;28;20804;-66
2023/04/12 07:44:12;;;;;;;3.93;1.93;;;8.20;1.00;;;;;;5057635;28;20466;-64
2023/04/12 07:46:40;;;;;;;5.33;1.90;;;8.10;99.90;;;;;;5057288;28;20863;-65
2023/04/12 07:49:09;;;;;;;2.60;2.13;;;8.10;1.00;;;;;;5057050;28;20520;-66
2023/04/12 07:51:36;;;;;;;3.23;2.07;;;8.10;16.00;;;;;;5057174;28;20516;-66
2023/04/12 07:54:03;;;;;;;2.50;1.90;;;8.20;99.90;;;;;;5056635;28;20468;-63
2023/04/12 07:56:34;;;;;;;2.60;1.87;;;8.20;1.00;;;;;;5057125;28;20445;-65
2023/04/12 07:59:01;;;;;;;2.70;2.10;;;8.20;99.90;;;;;;5059682;28;20742;-66
2023/04/12 08:01:29;;;;;;;4.87;2.17;;;8.40;99.90;;;;;;5063250;28;20879;-65
2023/04/12 08:03:56;;;;;;;2.83;2.10;;;8.40;1.00;;;;;;5062767;28;20508;-65
2023/04/12 08:06:23;;;;;;;2.63;1.87;;;8.40;99.90;;;;;;5063514;28;20470;-65
2023/04/12 08:08:50;;;;;;;2.73;1.97;;;8.40;1.00;;;;;;5064043;28;20885;-64
2023/04/12 08:11:17;;;;;;;3.30;2.40;;;8.40;1.00;;;;;;5063354;28;20454;-63
2023/04/12 08:13:46;;;;;;;3.20;2.20;;;8.50;99.90;;;;;;5063546;28;20733;-65
2023/04/12 08:16:13;;;;;;;2.30;1.70;;;8.70;2.30;;;;;;5063904;28;20575;-65
2023/04/12 08:18:40;;;;;;;2.53;1.90;;;8.70;1.00;;;;;;5063522;28;20466;-63
2023/04/12 08:21:07;;;;;;;2.97;1.93;;;8.80;28.50;;;;;;5063063;28;20774;-65
2023/04/12 08:23:34;;;;;;;6.30;1.67;;;8.70;1.00;;;;;;5061802;28;20561;-64
2023/04/12 08:26:03;;;;;;;3.17;2.03;;;8.70;1.00;;;;;;5061475;28;20473;-62
2023/04/12 08:28:30;;;;;;;2.67;1.80;;;8.70;1.00;;;;;;5061720;28;20458;-62
2023/04/12 08:30:59;;;;;;;3.03;1.80;;;8.60;99.90;;;;;;5063363;28;20494;-62
2023/04/12 08:33:26;;;;;;;5.83;2.10;;;8.60;1.00;;;;;;5063480;28;21016;-62
2023/04/12 08:35:53;;;;;;;2.90;1.60;;;8.60;99.90;;;;;;5063516;28;20462;-62
2023/04/12 08:38:20;;;;;;;2.30;1.67;;;8.60;1.00;;;;;;5063474;28;20472;-62
2023/04/12 08:40:47;;;;;;;2.70;1.97;;;8.60;1.00;;;;;;5063162;28;20592;-61
2023/04/12 08:43:17;;;;;;;3.73;1.83;;;8.50;99.90;;;;;;5063201;28;20758;-60
2023/04/12 08:45:45;;;;;;;2.33;1.60;;;8.60;7.40;;;;;;5063268;28;20469;-63
2023/04/12 08:48:15;;;;;;;2.60;2.10;;;8.70;99.90;;;;;;5063399;28;20469;-63
2023/04/12 08:50:43;;;;;;;2.30;2.00;;;8.70;2.00;;;;;;5063506;28;20465;-63
2023/04/12 08:53:11;;;;;;;4.90;2.30;;;8.70;1.00;;;;;;5062710;28;20462;-64
2023/04/12 08:55:38;;;;;;;2.50;1.80;;;8.70;99.90;;;;;;5062733;28;20898;-64
2023/04/12 08:58:08;;;;;;;2.70;1.80;;;8.90;99.90;;;;;;5063606;28;20899;-63
2023/04/12 09:00:37;;;;;;;2.20;1.70;;;9.00;99.90;;;;;;5063398;28;20461;-64
2023/04/12 09:03:05;;;;;;;2.47;1.90;;;9.00;1.00;;;;;;5062489;28;20466;-62
2023/04/12 09:05:33;;;;;;;3.10;2.10;;;9.00;1.00;;;;;;5062911;28;20461;-64
2023/04/12 09:08:01;;;;;;;2.80;1.90;;;9.00;1.00;;;;;;5063052;28;20529;-64
2023/04/12 09:10:32;;;;;;;2.60;2.10;;;9.00;1.00;;;;;;5061741;28;20462;-63
2023/04/12 09:12:59;;;;;;;2.93;2.03;;;8.90;1.00;;;;;;5059583;28;20899;-64
2023/04/12 09:15:26;;;;;;;2.90;2.00;;;8.90;1.00;;;;;;5059733;28;20463;-64
2023/04/12 09:18:04;;;;;;;3.67;1.87;;;8.90;1.00;;;;;;5059610;28;20462;-62
2023/04/12 09:20:33;;;;;;;2.80;2.10;;;9.00;1.00;;;;;;5058942;28;20543;-64
2023/04/12 09:23:01;;;;;;;2.70;2.03;;;9.00;56.20;;;;;;5059222;28;20493;-64
2023/04/12 09:25:40;;;;;;;2.33;1.87;;;9.00;1.00;;;;;;5059453;28;20473;-57
2023/04/12 09:28:22;;;;;;;4.30;2.00;;;9.10;99.90;;;;;;5059654;28;20462;-60
2023/04/12 09:30:51;;;;;;;2.83;1.80;;;9.10;1.00;;;;;;5059249;28;20486;-61
2023/04/12 09:33:19;;;;;;;3.17;2.10;;;9.30;1.00;;;;;;5058202;28;20904;-61
2023/04/12 09:35:48;;;;;;;4.10;2.10;;;9.40;1.00;;;;;;5058087;28;20466;-63
2023/04/12 09:38:16;;;;;;;3.10;1.63;;;9.40;99.90;;;;;;5057938;28;20462;-62
2023/04/12 09:40:43;;;;;;;2.67;1.90;;;9.40;1.00;;;;;;5058085;28;20891;-63
2023/04/12 09:43:10;;;;;;;2.70;1.90;;;9.60;99.90;;;;;;5057520;28;20577;-65
2023/04/12 09:45:38;;;;;;;3.90;2.00;;;9.80;99.90;;;;;;5057921;28;20772;-63
2023/04/12 09:48:07;;;;;;;2.80;1.90;;;9.80;99.70;;;;;;5057936;28;20470;-64
2023/04/12 09:50:34;;;;;;;4.57;2.03;;;9.90;99.90;;;;;;5059033;28;20462;-64
2023/04/12 09:53:14;;;;;;;2.93;2.17;;;9.90;99.90;;;;;;5058363;28;20894;-64
2023/04/12 09:55:41;;;;;;;2.93;1.70;;;10.20;1.00;;;;;;5057567;28;20462;-63
2023/04/12 09:58:09;;;;;;;2.93;1.70;;;10.50;99.90;;;;;;5058307;28;20473;-64
2023/04/12 10:00:37;;;;;;;4.00;2.03;;;10.60;1.00;;;;;;5058753;28;21018;-64
2023/04/12 10:03:05;;;;;;;2.50;1.90;;;10.50;99.90;;;;;;5058708;28;20508;-64
2023/04/12 10:05:34;;;;;;;2.07;1.80;;;10.50;99.90;;;;;;5058387;28;20459;-64
2023/04/12 10:08:02;;;;;;;2.60;1.70;;;10.30;34.40;;;;;;5058975;28;20470;-63
2023/04/12 10:10:31;;;;;;;2.40;1.70;;;10.10;70.60;;;;;;5060151;28;20880;-64
2023/04/12 10:12:59;;;;;;;12.87;1.80;;;10.10;99.90;;;;;;5060074;28;20458;-64
2023/04/12 10:15:26;;;;;;;2.80;1.63;;;10.20;99.90;;;;;;5060341;28;20461;-63
2023/04/12 10:17:56;;;;;;;2.70;1.93;;;10.30;1.00;;;;;;5060281;28;20469;-63
2023/04/12 10:20:23;;;;;;;2.40;1.70;;;10.40;99.90;;;;;;5059593;28;20458;-63
2023/04/12 10:22:52;;;;;;;3.03;2.00;;;10.50;99.90;;;;;;5059208;28;20502;-64
2023/04/12 10:25:23;;;;;;;2.63;1.67;;;10.40;83.50;;;;;;5059686;28;20484;-62
2023/04/12 10:27:50;;;;;;;2.20;1.87;;;10.30;47.80;;;;;;5059704;28;20462;-63
2023/04/12 10:30:22;;;;;;;2.20;1.60;;;10.30;81.50;;;;;;5059581;28;20482;-62
2023/04/12 10:33:11;;;;;;;2.00;1.60;;;10.30;99.90;;;;;;5049143;28;20494;-64
2023/04/12 10:35:58;;;;;;;2.60;1.70;;;10.30;99.90;;;;;;5039947;28;20469;-65
2023/04/12 10:38:31;;;;;;;2.67;1.90;;;10.40;99.90;;;;;;5039502;28;20904;-65
2023/04/12 10:41:16;;;;;;;2.57;1.60;;;10.50;99.90;;;;;;5040095;28;20747;-64
2023/04/12 10:43:45;;;;;;;2.30;1.67;;;10.60;99.90;;;;;;5039141;28;20594;-63
2023/04/12 10:46:52;;;;;;;2.10;1.50;;;10.70;99.90;;;;;;5039132;28;20474;-63
2023/04/12 10:49:19;;;;;;;3.50;1.43;;;10.80;65.10;;;;;;5038861;28;20986;-63
2023/04/12 10:52:14;;;;;;;3.13;2.00;;;10.70;1.00;;;;;;5038582;28;20470;-63
2023/04/12 10:54:42;;;;;;;2.10;1.63;;;10.80;20.10;;;;;;5038250;28;20471;-64
2023/04/12 10:57:44;;;;;;;2.93;1.60;;;10.80;10.20;;;;;;5038907;28;20482;-64
2023/04/12 11:00:13;;;;;;;2.40;1.90;;;10.90;14.20;;;;;;5037182;28;20469;-65
2023/04/12 11:03:10;;;;;;;3.00;1.93;;;10.90;1.00;;;;;;5038002;28;20491;-64
2023/04/12 11:05:58;;;;;;;2.90;2.40;;;10.90;1.00;;;;;;5037975;28;20468;-65
2023/04/12 11:08:26;;;;;;;3.77;2.60;;;10.90;1.00;;;;;;5039103;28;20466;-63
2023/04/12 11:11:00;;;;;;;3.17;2.13;;;11.00;1.70;;;;;;5038328;28;20464;-65
2023/04/12 11:13:29;;;;;;;2.90;2.30;;;10.90;1.00;;;;;;5038225;28;20463;-64
2023/04/12 11:15:57;;;;;;;3.13;2.67;;;11.00;2.50;;;;;;5038291;28;20467;-64
2023/04/12 11:18:26;;;;;;;3.00;2.10;;;11.00;12.40;;;;;;5038510;28;20459;-64
2023/04/12 11:20:54;;;;;;;3.10;2.70;;;11.10;86.50;;;;;;5038112;28;20474;-64
2023/04/12 11:23:21;;;;;;;2.70;2.27;;;11.10;99.90;;;;;;5037986;28;20499;-66
2023/04/12 11:25:52;;;;;;;3.10;2.43;;;10.90;75.00;;;;;;5038626;28;20887;-63
2023/04/12 11:28:22;;;;;;;2.60;2.40;;;10.60;99.90;;;;;;5038265;28;20463;-66
2023/04/12 11:30:53;;;;;;;4.70;3.27;;;10.40;99.90;;;;;;5037625;28;20533;-64
2023/04/12 11:33:33;;;;;;;3.13;2.47;;;10.30;1.00;;;;;;5037774;28;20480;-64
2023/04/12 11:36:04;;;;;;;4.17;2.90;;;10.20;99.90;;;;;;5038417;28;20462;-64
2023/04/12 11:38:32;;;;;;;3.70;3.33;;;10.40;34.10;;;;;;5039368;28;20883;-63
2023/04/12 11:40:59;;;;;;;4.50;3.80;;;10.80;1.00;;;;;;5053278;28;20477;-64
2023/04/12 11:43:26;;;;;;;8.07;6.10;;;11.40;1.00;;;;;;5056561;28;20491;-65
2023/04/12 11:45:58;;;;;;;8.77;5.70;;;12.00;99.90;;;;;;5056790;28;20473;-65
2023/04/12 11:48:26;;;;;;;5.70;3.60;;;12.20;99.90;;;;;;5056075;28;20468;-65
2023/04/12 11:50:54;;;;;;;6.23;3.93;;;12.30;1.00;;;;;;5056617;28;20466;-64
2023/04/12 11:53:23;;;;;;;8.47;5.63;;;12.40;1.00;;;;;;5056911;28;20561;-64
2023/04/12 11:55:50;;;;;;;4.13;3.53;;;12.60;1.00;;;;;;5056883;28;20883;-64
2023/04/12 11:58:22;;;;;;;5.20;4.43;;;12.50;1.00;;;;;;5056881;28;20484;-64
2023/04/12 12:00:50;;;;;;;4.73;3.63;;;12.40;1.00;;;;;;5057385;28;20454;-64
2023/04/12 12:03:19;;;;;;;5.50;4.40;;;12.40;1.00;;;;;;5057764;28;20541;-64
2023/04/12 12:05:47;;;;;;;5.93;5.07;;;12.40;1.00;;;;;;5057447;28;20476;-64
2023/04/12 12:08:14;;;;;;;7.77;5.57;;;12.30;1.00;;;;;;5047989;28;20897;-64
2023/04/12 12:10:42;;;;;;;9.90;5.07;;;12.30;1.00;;;;;;5054641;28;20458;-64
2023/04/12 12:13:12;;;;;;;7.30;4.70;;;12.40;1.00;;;;;;5054260;28;20465;-64
2023/04/12 12:15:39;;;;;;;6.00;4.80;;;12.40;1.00;;;;;;5054436;28;20888;-64
2023/04/12 12:18:08;;;;;;;7.90;5.40;;;12.20;1.00;;;;;;5054543;28;20891;-64
2023/04/12 12:20:42;;;;;;;6.17;4.57;;;12.30;1.00;;;;;;5055101;28;20516;-64
2023/04/12 12:23:09;;;;;;;5.37;4.87;;;12.40;1.00;;;;;;5054144;28;20497;-64
2023/04/12 12:25:36;;;;;;;6.50;5.67;;;12.40;1.00;;;;;;5054907;28;20469;-65
2023/04/12 12:28:04;;;;;;;5.57;4.60;;;12.40;1.00;;;;;;5054758;28;20458;-64
2023/04/12 12:30:32;;;;;;;4.00;3.60;;;12.30;1.00;;;;;;5055092;28;20618;-64
2023/04/12 12:32:59;;;;;;;4.40;3.90;;;12.10;1.00;;;;;;5055150;28;20446;-64
2023/04/12 12:35:27;;;;;;;4.83;4.33;;;12.00;1.00;;;;;;5054903;28;20732;-64
2023/04/12 12:37:57;;;;;;;4.43;3.70;;;12.10;1.00;;;;;;5054376;28;20512;-64
2023/04/12 12:40:32;;;;;;;4.50;3.60;;;12.30;1.00;;;;;;5055197;28;20470;-65
2023/04/12 12:42:59;;;;;;;5.07;3.53;;;12.50;1.00;;;;;;5048953;28;20502;-65
2023/04/12 12:45:28;;;;;;;4.50;3.80;;;12.70;1.00;;;;;;5035918;28;20463;-65
2023/04/12 12:47:58;;;;;;;4.77;3.93;;;12.60;1.00;;;;;;5055547;28;20470;-65
2023/04/12 12:50:26;;;;;;;5.97;3.80;;;12.70;1.00;;;;;;5057843;28;20516;-66
2023/04/12 12:52:56;;;;;;;3.97;3.40;;;12.70;1.00;;;;;;5057077;28;20458;-65
2023/04/12 12:55:24;;;;;;;6.37;3.87;;;12.70;99.90;;;;;;5056633;28;20484;-64
2023/04/12 12:57:54;;;;;;;5.67;3.60;;;13.00;1.00;;;;;;5057017;28;20481;-64
2023/04/12 13:00:24;;;;;;;4.80;3.13;;;13.00;99.90;;;;;;5058737;28;20462;-64
2023/04/12 13:02:51;;;;;;;4.40;3.37;;;13.10;99.90;;;;;;5057553;28;20788;-64
2023/04/12 13:05:19;;;;;;;5.80;3.30;;;13.10;99.90;;;;;;5057079;28;20543;-63
2023/04/12 13:07:47;;;;;;;4.23;3.17;;;13.30;99.90;;;;;;5056868;28;20558;-63
2023/04/12 13:10:15;;;;;;;5.47;3.17;;;13.40;99.90;;;;;;5056927;28;20465;-63
2023/04/12 13:12:42;;;;;;;3.33;2.93;;;13.70;99.90;;;;;;5056627;28;20775;-63
2023/04/12 13:15:13;;;;;;;4.90;3.30;;;13.80;99.90;;;;;;5056643;28;20511;-63
2023/04/12 13:17:41;;;;;;;3.77;3.00;;;13.70;99.90;;;;;;5057610;28;20874;-63
2023/04/12 13:20:09;;;;;;;4.63;3.13;;;13.60;99.90;;;;;;5059599;28;20536;-63
2023/04/12 13:22:36;;;;;;;7.90;3.00;;;13.60;99.90;;;;;;5059713;28;20584;-62
2023/04/12 13:25:03;;;;;;;3.33;2.60;;;13.50;99.90;;;;;;5059341;28;20462;-62
2023/04/12 13:27:32;;;;;;;6.10;3.40;;;14.00;99.90;;;;;;5059105;28;20871;-61
2023/04/12 13:29:59;;;;;;;3.90;2.37;;;14.30;99.90;;;;;;5059163;28;20490;-62
2023/04/12 13:32:26;;;;;;;3.90;2.60;;;14.20;99.90;;;;;;5059643;28;20739;-61
2023/04/12 13:34:53;;;;;;;5.23;3.30;;;14.10;99.90;;;;;;5058833;28;20466;-59
2023/04/12 13:37:20;;;;;;;5.80;3.10;;;14.00;99.90;;;;;;5059065;28;20565;-62
2023/04/12 13:39:48;;;;;;;6.60;3.33;;;14.20;99.90;;;;;;5059456;28;20462;-62
2023/04/12 13:42:15;;;;;;;5.73;3.40;;;14.80;99.90;;;;;;5058674;28;20468;-62
2023/04/12 13:44:44;;;;;;;5.90;3.10;;;14.90;99.90;;;;;;5058272;28;20468;-61
2023/04/12 13:47:11;;;;;;;5.50;3.50;;;14.80;99.90;;;;;;5057428;28;20469;-61
2023/04/12 13:49:38;;;;;;;11.07;4.00;;;14.60;99.90;;;;;;5057923;28;20906;-62
2023/04/12 13:52:05;;;;;;;7.17;3.67;;;14.60;99.90;;;;;;5058259;28;20766;-62
2023/04/12 13:54:32;;;;;;;6.00;3.60;;;14.10;99.90;;;;;;5059111;28;20459;-61
2023/04/12 13:56:59;;;;;;;6.70;3.60;;;13.90;99.90;;;;;;5056072;28;20505;-62
2023/04/12 13:59:26;;;;;;;6.87;3.80;;;13.60;99.90;;;;;;5056858;28;20462;-62
2023/04/12 14:01:55;;;;;;;6.13;3.97;;;13.50;99.90;;;;;;5057286;28;20462;-62
2023/04/12 14:04:22;;;;;;;8.07;3.73;;;13.40;99.90;;;;;;5056316;28;20970;-62
2023/04/12 14:06:49;;;;;;;5.90;3.97;;;13.60;99.90;;;;;;5056127;28;20496;-61
2023/04/12 14:09:24;;;;;;;6.93;3.50;;;13.50;99.90;;;;;;5055982;28;20762;-61
2023/04/12 14:11:54;;;;;;;5.37;3.53;;;13.60;99.90;;;;;;5057481;28;20466;-61
2023/04/12 14:14:21;;;;;;;6.40;3.83;;;13.50;99.90;;;;;;5058087;28;20735;-61
2023/04/12 14:16:49;;;;;;;7.50;4.30;;;13.30;99.90;;;;;;5057720;28;20466;-62
2023/04/12 14:19:18;;;;;;;6.20;3.10;;;12.90;99.90;;;;;;5058175;28;20902;-61
2023/04/12 14:21:45;;;;;;;7.90;3.93;;;12.50;99.90;;;;;;5058675;28;20462;-61
2023/04/12 14:24:12;;;;;;;7.00;3.77;;;12.40;99.90;;;;;;5058703;28;20945;-61
2023/04/12 14:26:39;;;;;;;7.10;3.30;;;12.50;99.90;;;;;;5058893;28;20502;-61
2023/04/12 14:29:06;;;;;;;10.40;4.07;;;12.50;99.90;;;;;;5058387;28;20466;-61
2023/04/12 14:31:35;;;;;;;9.50;3.70;;;12.50;99.90;;;;;;5058205;28;20486;-61
2023/04/12 14:34:02;;;;;;;7.27;4.00;;;12.40;99.90;;;;;;5058304;28;20458;-64
2023/04/12 14:36:30;;;;;;;11.13;4.10;;;12.40;99.90;;;;;;5058359;28;20466;-63
2023/04/12 14:38:57;;;;;;;13.17;3.57;;;12.20;99.90;;;;;;5058132;28;20833;-63
2023/04/12 14:41:25;;;;;;;7.20;3.53;;;12.00;99.90;;;;;;5058273;28;20462;-63
2023/04/12 14:43:52;;;;;;;8.77;4.23;;;11.80;99.90;;;;;;5057563;28;20497;-62
2023/04/12 14:46:19;;;;;;;5.80;3.00;;;11.30;99.90;;;;;;5058437;28;20489;-61
2023/04/12 14:48:46;;;;;;;6.30;2.47;;;10.70;99.90;;;;;;5058630;28;20898;-62
2023/04/12 14:51:13;;;;;;;4.13;2.27;;;10.10;99.90;;;;;;5058311;28;20440;-62
2023/04/12 14:53:42;;;;;;;4.97;2.00;;;9.50;99.90;;;;;;5058276;28;20481;-62
2023/04/12 14:56:17;;;;;;;3.30;1.90;;;9.20;1.00;;;;;;5058449;28;20516;-63
2023/04/12 14:58:44;;;;;;;4.20;1.93;;;9.10;1.00;;;;;;5058145;28;20466;-63
2023/04/12 15:01:12;;;;;;;7.57;2.30;;;9.00;1.00;;;;;;5058213;28;20505;-63
2023/04/12 15:03:41;;;;;;;4.63;2.37;;;8.90;1.00;;;;;;5058396;28;20473;-62
2023/04/12 15:06:08;;;;;;;4.87;2.00;;;8.80;1.00;;;;;;5058178;28;20462;-63
2023/04/12 15:08:40;;;;;;;5.83;2.07;;;8.80;1.00;;;;;;5057627;28;20846;-63
2023/04/12 15:11:10;;;;;;;3.30;2.00;;;8.90;1.00;;;;;;5057453;28;20883;-63
2023/04/12 15:13:40;;;;;;;3.97;2.10;;;9.10;1.00;;;;;;5058409;28;20529;-63
2023/04/12 15:16:09;;;;;;;5.60;2.50;;;9.10;1.00;;;;;;5056731;28;20470;-63
2023/04/12 15:18:38;;;;;;;7.10;2.90;;;9.20;1.00;;;;;;5056338;28;21539;-65
2023/04/12 15:21:07;;;;;;;6.37;2.77;;;9.80;1.00;;;;;;5053728;28;20458;-62
2023/04/12 15:30:19;;;;;;;3.87;2.47;;;12.10;1.00;;;;;;5054781;28;20577;-62
2023/04/12 15:32:47;;;;;;;3.67;2.10;;;12.60;1.00;;;;;;5056554;28;20442;-63
2023/04/12 15:35:16;;;;;;;4.07;2.50;;;12.70;99.90;;;;;;5055492;28;20458;-63
2023/04/12 15:37:44;;;;;;;6.57;2.80;;;12.80;99.90;;;;;;5054945;28;20462;-62
2023/04/12 15:40:12;;;;;;;6.13;3.00;;;12.60;99.90;;;;;;5054549;28;21049;-62